Time;durP1;ratioP1;P1;durP2;ratioP2;P2;SDS_P1;SDS_P2;PMS_P1;PMS_P2;Temp;Humidity;BMP_temperature;BMP_pressure;BME280_temperature;BME280_humidity;BME280_pressure;Samples;Min_cycle;Max_cycle;Signal;HPM_P1;HPM_P2
2023/10/17 00:00:18;;;;;;;3.40;1.80;;;;;;;11.64;49.40;100331.47;3162083;28;20127;-67
2023/10/17 00:01:52;;;;;;;6.60;2.00;;;;;;;11.52;50.35;100332.81;3153350;28;20581;-67
2023/10/17 00:03:24;;;;;;;10.48;2.05;;;;;;;11.45;50.63;100332.22;3160474;28;20051;-67
2023/10/17 00:04:56;;;;;;;4.82;1.98;;;;;;;11.38;50.89;100333.34;3157720;28;20040;-68
2023/10/17 00:06:27;;;;;;;7.18;2.55;;;;;;;11.33;51.45;100330.09;3155679;28;20160;-67
2023/10/17 00:08:00;;;;;;;7.47;2.00;;;;;;;11.24;51.42;100320.00;3169910;28;20054;-66
2023/10/17 00:09:36;;;;;;;6.82;2.28;;;;;;;11.24;51.79;100327.84;3169788;28;20043;-67
2023/10/17 00:11:14;;;;;;;4.55;2.10;;;;;;;11.09;51.94;100306.69;3165210;28;20222;-67
2023/10/17 00:12:52;;;;;;;5.95;1.98;;;;;;;11.19;51.96;100324.59;3170036;28;20147;-66
2023/10/17 00:14:24;;;;;;;10.40;2.30;;;;;;;11.16;51.91;100321.19;3169686;28;20123;-66
2023/10/17 00:15:56;;;;;;;6.05;2.35;;;;;;;11.22;51.50;100327.91;3164954;28;20047;-66
2023/10/17 00:17:27;;;;;;;8.18;2.08;;;;;;;11.27;51.56;100314.69;3169730;28;20085;-67
2023/10/17 00:19:04;;;;;;;4.10;2.13;;;;;;;11.29;51.59;100321.53;3169986;28;20051;-67
2023/10/17 00:20:37;;;;;;;5.50;2.45;;;;;;;11.26;51.51;100320.81;3170111;28;20051;-67
2023/10/17 00:22:10;;;;;;;8.88;2.30;;;;;;;11.22;52.02;100316.63;3170110;28;20058;-67
2023/10/17 00:23:42;;;;;;;10.68;2.55;;;;;;;11.19;51.83;100317.59;3169797;28;20130;-66
2023/10/17 00:25:17;;;;;;;8.70;2.40;;;;;;;11.21;52.09;100321.00;3170275;28;20142;-67
2023/10/17 00:26:49;;;;;;;6.80;2.03;;;;;;;11.19;52.01;100312.38;3157718;28;20071;-66
2023/10/17 00:28:22;;;;;;;6.38;2.42;;;;;;;11.17;52.28;100311.59;3169556;28;20513;-68
2023/10/17 00:29:54;;;;;;;7.07;1.83;;;;;;;11.13;52.44;100315.25;3167638;28;20052;-67
2023/10/17 00:31:24;;;;;;;6.70;2.30;;;;;;;11.14;52.21;100314.31;3162365;28;20048;-67
2023/10/17 00:32:56;;;;;;;11.70;2.30;;;;;;;11.14;52.14;100314.31;3158047;28;20383;-67
2023/10/17 00:34:27;;;;;;;4.32;2.33;;;;;;;11.16;52.57;100317.72;3164584;28;20043;-67
2023/10/17 00:36:03;;;;;;;4.75;2.05;;;;;;;11.01;52.44;100294.88;3170204;28;20451;-67
2023/10/17 00:37:37;;;;;;;5.03;2.08;;;;;;;11.12;52.34;100313.53;3169351;28;20061;-66
2023/10/17 00:39:11;;;;;;;7.63;2.22;;;;;;;11.09;52.59;100317.13;3169308;28;20051;-66
2023/10/17 00:40:48;;;;;;;5.47;2.25;;;;;;;11.07;52.79;100313.72;3165235;28;20058;-66
2023/10/17 00:42:29;;;;;;;4.57;2.20;;;;;;;11.04;52.75;100315.59;3163459;28;20115;-66
2023/10/17 00:44:01;;;;;;;10.98;2.17;;;;;;;11.03;52.88;100312.16;3169452;28;20569;-66
2023/10/17 00:45:33;;;;;;;10.23;2.50;;;;;;;11.04;52.99;100313.84;3163683;28;20450;-67
2023/10/17 00:47:08;;;;;;;4.60;2.00;;;;;;;11.03;52.93;100319.97;3164556;28;20131;-66
2023/10/17 00:48:40;;;;;;;5.53;2.40;;;;;;;11.00;53.03;100307.03;3169966;28;20063;-66
2023/10/17 00:50:13;;;;;;;5.57;2.40;;;;;;;11.00;53.01;100314.84;3169850;28;20057;-66
2023/10/17 00:51:45;;;;;;;6.45;2.60;;;;;;;10.98;53.27;100314.09;3169498;28;20043;-67
2023/10/17 00:53:16;;;;;;;7.80;2.33;;;;;;;10.89;53.19;100293.59;3165804;28;20040;-67
2023/10/17 00:54:50;;;;;;;10.32;2.90;;;;;;;10.95;53.36;100311.59;3155789;28;20059;-67
2023/10/17 00:56:20;;;;;;;6.50;2.30;;;;;;;10.90;53.33;100310.91;3157808;28;20055;-67
2023/10/17 00:57:54;;;;;;;6.00;2.20;;;;;;;10.88;53.64;100300.56;3159132;28;20052;-66
2023/10/17 00:59:29;;;;;;;7.72;2.83;;;;;;;10.86;53.73;100304.13;3165633;28;20113;-67
2023/10/17 01:01:09;;;;;;;7.70;2.38;;;;;;;10.90;53.35;100311.75;3144698;28;20052;-67
2023/10/17 01:02:44;;;;;;;8.50;2.85;;;;;;;10.85;53.39;100308.47;3148932;28;20125;-67
2023/10/17 01:04:19;;;;;;;4.63;2.30;;;;;;;10.86;53.48;100307.59;3154195;28;20055;-68
2023/10/17 01:05:57;;;;;;;8.35;2.47;;;;;;;10.86;53.62;100304.13;3148457;28;20048;-67
2023/10/17 01:07:30;;;;;;;5.35;2.25;;;;;;;10.82;53.67;100302.53;3169423;28;20082;-67
2023/10/17 01:09:09;;;;;;;4.60;2.67;;;;;;;10.78;53.79;100298.34;3169437;28;20074;-67
2023/10/17 01:10:41;;;;;;;3.95;1.98;;;;;;;10.82;53.91;100313.81;3165774;28;20048;-67
2023/10/17 01:12:12;;;;;;;9.38;2.55;;;;;;;10.84;53.81;100309.38;3169581;28;20048;-68
2023/10/17 01:13:44;;;;;;;5.22;2.47;;;;;;;10.86;53.80;100309.34;3170809;28;20101;-68
2023/10/17 01:15:21;;;;;;;8.35;2.35;;;;;;;10.87;53.47;100303.22;3168890;28;20134;-68
2023/10/17 01:16:53;;;;;;;9.55;2.95;;;;;;;10.84;53.77;100306.78;3172171;28;20058;-69
2023/10/17 01:18:31;;;;;;;8.10;2.70;;;;;;;10.84;53.73;100300.72;3171947;28;20043;-70
2023/10/17 01:20:10;;;;;;;4.80;2.60;;;;;;;10.82;53.68;100307.75;3172076;27;20047;-69
2023/10/17 01:21:41;;;;;;;6.28;2.20;;;;;;;10.80;53.90;100304.38;3172496;28;20077;-69
2023/10/17 01:23:14;;;;;;;4.15;2.17;;;;;;;10.79;53.67;100311.31;3172250;28;20540;-69
2023/10/17 01:24:46;;;;;;;8.75;2.83;;;;;;;10.78;54.09;100300.97;3172189;28;20059;-69
2023/10/17 01:26:23;;;;;;;12.90;3.30;;;;;;;10.79;54.01;100308.69;3170737;28;20078;-67
2023/10/17 01:27:54;;;;;;;7.20;2.25;;;;;;;10.64;53.97;100289.28;3172000;28;20052;-68
2023/10/17 01:29:26;;;;;;;6.80;2.50;;;;;;;10.76;54.03;100306.22;3167591;28;20047;-68
2023/10/17 01:31:01;;;;;;;9.63;2.80;;;;;;;10.75;54.11;100303.69;3171654;28;20123;-68
2023/10/17 01:32:33;;;;;;;4.50;2.22;;;;;;;10.77;53.88;100302.72;3154806;28;20036;-68
2023/10/17 01:34:06;;;;;;;5.33;2.27;;;;;;;10.78;53.94;100304.41;3159400;28;20152;-68
2023/10/17 01:35:38;;;;;;;11.85;2.30;;;;;;;10.80;53.86;100301.75;3171813;28;20527;-68
2023/10/17 01:37:10;;;;;;;7.93;2.35;;;;;;;10.83;53.70;100304.25;3171608;28;20048;-68
2023/10/17 01:38:45;;;;;;;5.45;2.30;;;;;;;10.87;53.71;100306.66;3172231;28;20133;-68
2023/10/17 01:40:22;;;;;;;8.93;2.45;;;;;;;10.87;53.80;100303.22;3171335;28;20044;-68
2023/10/17 01:41:54;;;;;;;11.65;2.63;;;;;;;10.86;53.99;100309.34;3150854;28;20136;-67
2023/10/17 01:43:25;;;;;;;5.30;2.80;;;;;;;10.86;53.49;100304.97;3161988;28;20040;-67
2023/10/17 01:44:57;;;;;;;4.57;2.25;;;;;;;10.90;53.61;100305.69;3171398;28;20052;-67
2023/10/17 01:46:29;;;;;;;8.75;2.10;;;;;;;10.91;53.68;100310.00;3172167;28;20513;-68
2023/10/17 01:48:00;;;;;;;5.85;2.38;;;;;;;10.96;53.12;100309.84;3171869;28;20048;-67
2023/10/17 01:49:31;;;;;;;7.53;2.45;;;;;;;10.94;53.34;100307.28;3171616;28;20074;-67
2023/10/17 01:51:07;;;;;;;4.68;2.28;;;;;;;10.89;52.88;100312.69;3172204;28;20052;-67
2023/10/17 01:52:42;;;;;;;5.88;1.92;;;;;;;10.78;52.89;100308.78;3171224;28;20094;-67
2023/10/17 01:54:16;;;;;;;5.90;2.13;;;;;;;10.72;52.76;100309.84;3161468;28;20056;-67
2023/10/17 01:56:05;;;;;;;5.50;1.88;;;;;;;10.57;52.58;100306.06;3155854;28;20139;-68
2023/10/17 01:57:40;;;;;;;5.03;1.77;;;;;;;10.54;52.89;100316.59;3162343;28;20158;-68
2023/10/17 01:59:17;;;;;;;5.15;1.88;;;;;;;10.55;52.35;100313.06;3171215;28;20129;-66
2023/10/17 02:00:49;;;;;;;8.63;2.72;;;;;;;10.55;52.24;100310.47;3171257;28;20063;-67
2023/10/17 02:02:23;;;;;;;3.78;1.70;;;;;;;10.51;51.89;100313.25;3153995;28;20106;-67
2023/10/17 02:04:02;;;;;;;11.27;1.95;;;;;;;10.45;51.54;100309.97;3163378;28;20048;-67
2023/10/17 02:05:33;;;;;;;12.00;2.22;;;;;;;10.37;51.54;100316.34;3153952;28;20139;-66
2023/10/17 02:07:05;;;;;;;5.53;1.77;;;;;;;10.33;51.32;100309.56;3167231;28;20050;-67
2023/10/17 02:08:36;;;;;;;5.18;1.75;;;;;;;10.37;50.99;100319.81;3171250;28;20486;-67
2023/10/17 02:10:09;;;;;;;7.05;1.80;;;;;;;10.40;50.75;100314.50;3171633;28;20165;-67
2023/10/17 02:11:44;;;;;;;9.18;2.22;;;;;;;10.39;51.03;100314.56;3166258;28;20062;-68
2023/10/17 02:13:15;;;;;;;8.88;2.00;;;;;;;10.38;50.47;100318.91;3167573;28;20145;-68
2023/10/17 02:14:46;;;;;;;4.10;1.83;;;;;;;10.32;50.61;100316.50;3171238;28;20052;-67
2023/10/17 02:16:17;;;;;;;3.80;1.70;;;;;;;10.25;50.63;100321.06;3171812;28;20055;-68
2023/10/17 02:17:51;;;;;;;12.65;1.85;;;;;;;10.20;50.25;100322.13;3171248;28;20051;-68
2023/10/17 02:19:23;;;;;;;4.97;1.75;;;;;;;10.15;50.30;100330.09;3171349;28;20122;-67
2023/10/17 02:21:04;;;;;;;4.53;1.90;;;;;;;10.11;50.40;100323.28;3171760;28;20504;-68
2023/10/17 02:22:41;;;;;;;6.82;1.80;;;;;;;10.03;50.17;100328.78;3170833;28;20577;-68
2023/10/17 02:24:20;;;;;;;4.40;1.90;;;;;;;9.96;49.95;100322.06;3171518;28;20052;-68
2023/10/17 02:25:52;;;;;;;8.48;2.35;;;;;;;9.94;50.13;100330.84;3163557;28;20072;-68
2023/10/17 02:27:27;;;;;;;5.50;2.28;;;;;;;9.95;50.06;100340.34;3158586;28;20050;-68
2023/10/17 02:28:59;;;;;;;7.80;1.88;;;;;;;9.89;49.91;100327.56;3171255;28;20040;-68
2023/10/17 02:30:30;;;;;;;5.53;2.42;;;;;;;9.86;50.09;100328.50;3171034;28;20063;-67
2023/10/17 02:32:02;;;;;;;4.32;1.95;;;;;;;9.79;49.73;100324.41;3161995;28;20059;-68
2023/10/17 02:33:32;;;;;;;7.35;2.17;;;;;;;9.73;49.73;100333.28;3159450;28;20048;-68
2023/10/17 02:35:05;;;;;;;4.63;1.83;;;;;;;9.70;49.54;100338.59;3171286;28;20104;-68
2023/10/17 02:36:37;;;;;;;8.40;2.35;;;;;;;9.71;49.77;100340.28;3170803;28;20429;-68
2023/10/17 02:38:08;;;;;;;4.45;1.80;;;;;;;9.78;49.57;100338.31;3171734;28;20054;-68
2023/10/17 02:39:40;;;;;;;6.03;2.10;;;;;;;9.81;49.59;100343.41;3154829;28;20048;-68
2023/10/17 02:41:13;;;;;;;5.20;2.30;;;;;;;9.75;49.22;100328.84;3153792;28;20374;-68
2023/10/17 02:42:47;;;;;;;5.95;2.00;;;;;;;9.88;49.20;100329.31;3168348;28;20071;-68
2023/10/17 02:44:19;;;;;;;5.85;1.70;;;;;;;9.90;48.64;100335.28;3170773;28;20070;-68
2023/10/17 02:45:53;;;;;;;10.00;1.70;;;;;;;9.93;48.65;100337.78;3171373;28;20043;-67
2023/10/17 02:47:24;;;;;;;5.60;2.00;;;;;;;9.92;48.41;100340.47;3171140;28;20439;-68
2023/10/17 02:48:57;;;;;;;9.15;2.10;;;;;;;9.91;48.05;100346.53;3170768;28;20048;-67
2023/10/17 02:50:42;;;;;;;5.15;2.13;;;;;;;9.89;48.10;100337.97;3170805;28;20478;-67
2023/10/17 02:52:17;;;;;;;9.55;2.58;;;;;;;9.88;47.94;100339.72;3171121;28;20055;-66
2023/10/17 02:53:50;;;;;;;8.98;2.03;;;;;;;9.88;47.81;100341.44;3163884;28;20094;-67
2023/10/17 02:55:24;;;;;;;;;;;;;;;9.67;48.15;100343.00;3166034;28;20130;-66
2023/10/17 02:56:57;;;;;;;5.13;1.98;;;;;;;9.63;47.91;100341.41;3160035;28;20038;-68
2023/10/17 02:58:30;;;;;;;4.97;1.80;;;;;;;9.63;48.06;100338.81;3164145;28;20043;-67
2023/10/17 03:00:19;;;;;;;8.77;2.20;;;;;;;9.44;47.93;100307.38;3170630;28;20054;-67
2023/10/17 03:01:55;;;;;;;7.25;1.88;;;;;;;9.62;47.81;100332.78;3159681;28;20459;-67
2023/10/17 03:03:26;;;;;;;10.85;2.40;;;;;;;9.67;47.75;100335.22;3159315;28;20054;-67
2023/10/17 03:05:06;;;;;;;7.38;2.13;;;;;;;9.70;47.72;100324.69;3151682;28;20141;-67
2023/10/17 03:06:44;;;;;;;5.18;2.00;;;;;;;9.68;47.56;100321.31;3159622;28;20043;-67
2023/10/17 03:08:15;;;;;;;6.80;2.33;;;;;;;9.74;47.58;100327.16;3171075;28;20089;-67
2023/10/17 03:09:48;;;;;;;5.88;1.95;;;;;;;9.76;47.47;100327.97;3170087;28;20044;-67
2023/10/17 03:11:35;;;;;;;4.65;2.00;;;;;;;9.79;47.16;100324.41;3163563;27;20492;-67
2023/10/17 03:13:14;;;;;;;7.63;2.00;;;;;;;9.79;47.21;100329.63;3170703;28;20055;-68
2023/10/17 03:16:40;;;;;;;6.43;1.98;;;;;;;9.83;46.95;100325.16;3170387;28;20557;-66
2023/10/17 03:18:15;;;;;;;5.88;1.90;;;;;;;9.83;46.84;100322.56;3170723;28;20109;-66
2023/10/17 03:19:47;;;;;;;5.80;1.63;;;;;;;9.83;46.74;100317.34;3170484;28;20068;-66
2023/10/17 03:21:18;;;;;;;5.90;2.63;;;;;;;9.83;46.49;100314.75;3170561;28;20115;-66
2023/10/17 03:22:51;;;;;;;7.20;2.22;;;;;;;9.82;46.31;100303.50;3167954;28;20051;-66
2023/10/17 03:24:28;;;;;;;7.07;2.20;;;;;;;9.75;46.14;100313.25;3165275;28;20047;-67
2023/10/17 03:26:00;;;;;;;10.57;2.30;;;;;;;9.70;46.54;100312.56;3151630;28;20513;-66
2023/10/17 03:27:48;;;;;;;9.90;2.55;;;;;;;9.65;46.62;100311.88;3152552;28;20051;-69
2023/10/17 03:29:19;;;;;;;5.03;2.05;;;;;;;9.62;46.73;100314.56;3165042;28;20507;-67
2023/10/17 03:30:53;;;;;;;6.53;2.03;;;;;;;9.67;46.58;100314.41;3165330;28;20516;-67
2023/10/17 03:32:24;;;;;;;10.55;2.20;;;;;;;9.67;46.40;100310.06;3155144;28;20136;-67
2023/10/17 03:33:58;;;;;;;7.90;1.80;;;;;;;9.71;46.25;100316.03;3156405;28;20058;-65
2023/10/17 03:35:30;;;;;;;12.13;2.58;;;;;;;9.72;46.41;100308.16;3156208;28;20502;-65
2023/10/17 03:39:02;;;;;;;15.00;2.78;;;;;;;9.68;46.43;100301.38;3164620;27;20595;-66
2023/10/17 03:40:35;;;;;;;13.23;2.20;;;;;;;9.68;46.55;100309.16;3150904;28;20056;-65
2023/10/17 03:42:08;;;;;;;10.30;2.20;;;;;;;9.69;46.10;100303.06;3159282;28;20051;-65
2023/10/17 03:43:40;;;;;;;7.03;2.33;;;;;;;9.70;46.43;100309.09;3165177;28;20850;-66
2023/10/17 03:45:13;;;;;;;8.30;2.22;;;;;;;9.63;46.42;100298.06;3164523;28;20591;-65
2023/10/17 03:46:48;;;;;;;9.43;2.10;;;;;;;9.76;46.13;100316.69;3164760;28;20583;-65
2023/10/17 03:48:20;;;;;;;8.43;2.50;;;;;;;9.76;46.22;100319.28;3165028;28;20063;-67
2023/10/17 03:49:56;;;;;;;11.20;2.53;;;;;;;9.77;46.34;100314.06;3164976;28;20059;-65
2023/10/17 03:51:27;;;;;;;10.52;2.92;;;;;;;9.77;46.18;100321.84;3164909;28;20083;-67
2023/10/17 03:53:05;;;;;;;11.90;2.63;;;;;;;9.76;46.26;100309.75;3161786;28;20055;-67
2023/10/17 03:54:38;;;;;;;9.82;2.78;;;;;;;9.76;46.45;100311.50;3157074;28;20134;-68
2023/10/17 03:56:11;;;;;;;7.50;2.53;;;;;;;9.77;46.45;100310.59;3163640;28;20044;-67
2023/10/17 03:57:52;;;;;;;13.10;2.83;;;;;;;9.79;46.33;100314.03;3160563;28;20059;-67
2023/10/17 03:59:31;;;;;;;8.23;2.28;;;;;;;9.78;46.39;100307.94;3164960;28;20143;-67
2023/10/17 04:01:06;;;;;;;7.25;2.60;;;;;;;9.69;46.38;100297.00;3156538;28;20048;-65
2023/10/17 04:02:41;;;;;;;14.18;2.70;;;;;;;9.76;46.26;100312.38;3154599;28;20135;-66
2023/10/17 04:04:13;;;;;;;9.18;2.75;;;;;;;9.73;46.29;100312.47;3156704;28;20050;-66
2023/10/17 04:05:44;;;;;;;12.13;2.63;;;;;;;9.69;46.49;100317.81;3158389;28;20267;-67
2023/10/17 04:07:17;;;;;;;15.45;3.10;;;;;;;9.65;46.69;100314.47;3164675;28;20067;-67
2023/10/17 04:08:56;;;;;;;16.47;3.03;;;;;;;9.66;46.72;100312.72;3162413;28;20138;-70
2023/10/17 04:10:40;;;;;;;12.32;2.92;;;;;;;9.67;46.58;100311.81;3163414;28;20396;-72
2023/10/17 04:12:19;;;;;;;22.33;2.78;;;;;;;9.68;46.65;100316.97;3154225;28;20051;-68
2023/10/17 04:13:55;;;;;;;10.50;2.22;;;;;;;9.64;46.40;100309.31;3164829;28;20547;-69
2023/10/17 04:15:27;;;;;;;13.88;3.90;;;;;;;9.61;46.68;100312.00;3155876;28;20109;-69
2023/10/17 04:16:58;;;;;;;10.85;3.90;;;;;;;9.57;46.88;100308.66;3158953;28;20052;-70
2023/10/17 04:18:32;;;;;;;30.05;12.55;;;;;;;9.56;46.69;100302.63;3152316;28;20584;-67
2023/10/17 04:20:11;;;;;;;15.55;6.40;;;;;;;9.59;46.65;100309.47;3154942;28;20532;-66
2023/10/17 04:21:49;;;;;;;10.73;2.85;;;;;;;9.60;46.80;100312.91;3164388;28;20054;-66
2023/10/17 04:23:26;;;;;;;14.43;3.50;;;;;;;9.58;46.92;100318.16;3159281;28;20047;-63
2023/10/17 04:25:00;;;;;;;8.27;2.90;;;;;;;9.61;46.91;100312.84;3164532;28;20047;-69
2023/10/17 04:26:34;;;;;;;24.38;3.88;;;;;;;9.60;46.76;100318.97;3151696;28;20066;-67
2023/10/17 04:28:06;;;;;;;79.53;34.72;;;;;;;9.63;46.71;100323.22;3164878;28;20056;-65
2023/10/17 04:29:38;;;;;;;32.25;12.15;;;;;;;9.70;46.87;100319.50;3164889;28;20394;-66
2023/10/17 04:31:10;;;;;;;17.75;7.07;;;;;;;9.75;46.75;100326.25;3164703;28;20082;-73
2023/10/17 04:32:42;;;;;;;17.52;4.72;;;;;;;9.78;46.74;100317.50;3145451;28;20597;-68
2023/10/17 04:34:18;;;;;;;11.48;3.78;;;;;;;9.70;46.54;100322.97;3157219;28;20051;-69
2023/10/17 04:35:55;;;;;;;15.43;3.28;;;;;;;9.78;46.73;100333.94;3139712;28;20052;-73
2023/10/17 04:37:33;;;;;;;9.95;3.70;;;;;;;9.78;46.88;100340.91;3143329;28;20092;-68
2023/10/17 04:39:12;;;;;;;13.32;3.63;;;;;;;9.71;46.80;100336.81;3151324;28;20142;-69
2023/10/17 04:40:52;;;;;;;12.45;3.60;;;;;;;9.73;46.89;100345.41;3157237;28;20048;-69
2023/10/17 04:42:26;;;;;;;11.95;3.33;;;;;;;9.69;46.84;100342.06;3139789;28;20049;-69
2023/10/17 04:44:02;;;;;;;12.60;4.32;;;;;;;9.67;46.76;100337.81;3151546;28;20091;-72
2023/10/17 04:45:33;;;;;;;33.85;14.90;;;;;;;9.69;46.91;100341.22;3149898;28;20081;-71
2023/10/17 04:47:25;;;;;;;121.97;55.50;;;;;;;9.73;46.87;100330.69;3151935;28;20116;-72
2023/10/17 04:49:35;;;;;;;21.00;8.48;;;;;;;9.75;46.60;100334.06;3158743;28;20047;-71
2023/10/17 04:51:20;;;;;;;13.35;4.13;;;;;;;9.71;47.00;100323.81;3146161;28;20097;-71
2023/10/17 04:52:52;;;;;;;13.85;4.30;;;;;;;9.66;47.09;100323.97;3157869;28;20052;-71
2023/10/17 04:54:39;;;;;;;7.50;3.25;;;;;;;9.65;47.15;100330.06;3158154;28;20054;-69
2023/10/17 04:56:12;;;;;;;12.02;3.72;;;;;;;9.63;47.42;100333.63;3141472;28;20071;-75
2023/10/17 04:57:56;;;;;;;14.02;4.32;;;;;;;9.63;47.07;100338.81;3155626;28;20063;-75
2023/10/17 04:59:51;;;;;;;13.07;3.40;;;;;;;9.59;47.28;100330.28;3158444;28;20052;-77
2023/10/17 05:01:39;;;;;;;14.75;3.75;;;;;;;9.53;47.28;100339.13;3156062;28;20699;-76
2023/10/17 05:03:26;;;;;;;12.57;4.25;;;;;;;9.51;47.26;100345.25;3149130;28;20062;-76
2023/10/17 05:07:16;;;;;;;14.23;3.30;;;;;;;9.39;47.60;100349.09;3095181;28;20135;-76
2023/10/17 05:09:00;;;;;;;15.20;3.80;;;;;;;9.42;47.35;100346.41;3097053;28;20058;-77
2023/10/17 06:18:26;;;;;;;26.75;6.47;;;;;;;11.25;47.10;100386.91;3171009;28;20048;-71
2023/10/17 06:19:59;;;;;;;11.50;4.00;;;;;;;11.35;46.66;100378.66;3160175;28;20068;-71
2023/10/17 06:21:35;;;;;;;8.18;3.38;;;;;;;11.48;46.90;100391.25;3159810;28;20351;-64
2023/10/17 06:26:58;;;;;;;10.52;4.20;;;;;;;11.96;45.89;100382.34;3163933;28;20055;-66
2023/10/17 06:28:34;;;;;;;9.63;3.55;;;;;;;12.04;45.73;100381.13;3171432;28;20081;-66
2023/10/17 06:30:27;;;;;;;11.43;3.65;;;;;;;12.01;45.94;100377.81;3171045;28;20508;-63
2023/10/17 06:32:15;;;;;;;7.85;3.03;;;;;;;12.08;45.91;100387.06;3159143;27;20072;-64
2023/10/17 06:33:52;;;;;;;11.77;3.60;;;;;;;12.12;46.07;100386.00;3161329;28;20253;-67
2023/10/17 06:35:25;;;;;;;11.98;3.25;;;;;;;12.18;45.87;100379.69;3164643;28;20048;-66
2023/10/17 06:36:58;;;;;;;11.77;3.35;;;;;;;12.28;46.07;100381.00;3169073;28;20055;-66
2023/10/17 06:38:45;;;;;;;8.38;2.95;;;;;;;12.47;45.85;100389.72;3171504;28;20489;-65
2023/10/17 06:40:17;;;;;;;9.45;3.58;;;;;;;12.73;45.48;100385.13;3171288;28;20059;-64
2023/10/17 06:41:52;;;;;;;12.85;3.13;;;;;;;13.02;45.29;100377.75;3153629;28;20059;-64
2023/10/17 06:43:29;;;;;;;10.60;3.42;;;;;;;13.47;44.95;100376.53;3170445;28;20052;-65
2023/10/17 06:45:07;;;;;;;8.50;3.53;;;;;;;13.88;44.07;100377.13;3171044;28;20043;-64
2023/10/17 06:46:40;;;;;;;11.57;3.88;;;;;;;14.14;43.83;100381.06;3170009;28;20099;-62
2023/10/17 06:48:13;;;;;;;15.65;3.80;;;;;;;14.44;43.54;100380.41;3159254;28;20048;-64
2023/10/17 06:50:16;;;;;;;11.13;3.78;;;;;;;14.65;42.83;100378.47;3170806;28;20052;-65
2023/10/17 06:52:07;;;;;;;12.40;3.90;;;;;;;14.85;42.53;100380.00;3152956;28;20047;-64
2023/10/17 06:53:38;;;;;;;10.98;4.30;;;;;;;15.10;42.42;100387.41;3163576;28;21963;-66
2023/10/17 06:55:21;;;;;;;15.13;4.35;;;;;;;15.23;42.05;100386.66;3157859;28;20154;-64
2023/10/17 06:56:55;;;;;;;14.10;4.32;;;;;;;15.27;41.44;100386.50;3159774;28;20056;-64
2023/10/17 06:58:27;;;;;;;14.13;4.75;;;;;;;15.24;41.33;100390.13;3166010;28;20070;-64
2023/10/17 07:00:03;;;;;;;15.02;5.82;;;;;;;15.22;41.35;100387.59;3164696;28;20075;-64
2023/10/17 07:01:34;;;;;;;12.75;4.40;;;;;;;15.25;40.87;100384.78;3165598;28;20064;-67
2023/10/17 07:03:07;;;;;;;7.30;3.45;;;;;;;15.28;40.92;100385.56;3160215;28;20047;-66
2023/10/17 07:04:40;;;;;;;12.07;3.83;;;;;;;15.29;41.03;100380.22;3163074;28;20062;-67
2023/10/17 07:06:12;;;;;;;10.20;4.53;;;;;;;15.37;40.84;100379.78;3157195;28;20044;-67
2023/10/17 07:07:45;;;;;;;15.43;6.35;;;;;;;15.39;40.62;100376.16;3169740;28;20380;-65
2023/10/17 07:09:19;;;;;;;9.90;4.50;;;;;;;15.73;40.73;100378.69;3169258;28;20063;-67
2023/10/17 07:11:02;;;;;;;14.05;4.32;;;;;;;16.17;40.15;100373.47;3169244;28;20044;-63
2023/10/17 07:12:38;;;;;;;14.75;4.50;;;;;;;16.50;39.56;100375.84;3169403;28;20048;-64
2023/10/17 07:14:22;;;;;;;18.60;4.40;;;;;;;16.74;39.23;100375.28;3169842;27;20496;-64
2023/10/17 07:15:54;;;;;;;16.35;4.20;;;;;;;16.83;38.61;100383.50;3169601;28;20536;-65
2023/10/17 07:17:31;;;;;;;19.17;5.28;;;;;;;16.95;38.67;100389.78;3162523;28;20516;-65
2023/10/17 07:19:46;;;;;;;14.02;3.92;;;;;;;17.06;38.23;100389.09;3163443;28;20047;-65
2023/10/17 07:21:22;;;;;;;14.80;3.70;;;;;;;17.10;38.21;100393.25;3156059;28;20078;-65
2023/10/17 07:22:54;;;;;;;13.70;3.70;;;;;;;17.18;37.90;100382.22;3169123;28;20136;-65
2023/10/17 07:24:26;;;;;;;12.02;3.80;;;;;;;17.09;37.57;100386.28;3170744;28;20449;-65
2023/10/17 07:26:01;;;;;;;14.43;4.45;;;;;;;17.01;37.59;100392.03;3170605;28;20428;-65
2023/10/17 07:27:35;;;;;;;15.35;4.80;;;;;;;17.03;37.45;100387.50;3160755;28;20044;-64
2023/10/17 07:29:06;;;;;;;12.10;3.97;;;;;;;16.96;37.57;100372.22;3165967;28;20143;-64
2023/10/17 07:30:49;;;;;;;14.05;4.00;;;;;;;17.26;37.40;100387.84;3170372;28;20051;-65
2023/10/17 07:33:05;;;;;;;15.40;4.32;;;;;;;17.43;37.16;100381.50;3156247;28;20411;-65
2023/10/17 07:34:46;;;;;;;13.57;4.30;;;;;;;17.57;37.23;100375.34;3155793;28;20098;-64
2023/10/17 07:38:50;;;;;;;16.13;4.68;;;;;;;18.19;36.44;100375.66;3150392;28;20060;-66
2023/10/17 07:40:59;;;;;;;14.48;3.83;;;;;;;18.65;36.01;100375.09;3139653;28;20140;-66
2023/10/17 07:42:31;;;;;;;16.15;4.30;;;;;;;18.68;35.56;100372.25;3161180;28;20058;-67
2023/10/17 07:44:13;;;;;;;9.10;3.95;;;;;;;18.90;35.22;100376.91;3170417;28;20185;-65
2023/10/17 07:45:55;;;;;;;16.70;4.32;;;;;;;19.14;35.21;100370.81;3170186;28;20051;-64
2023/10/17 07:47:34;;;;;;;14.02;3.83;;;;;;;19.30;34.82;100360.84;3170139;28;20054;-64
2023/10/17 07:49:07;;;;;;;16.10;4.32;;;;;;;19.54;34.24;100363.50;3166736;28;20052;-64
2023/10/17 07:50:40;;;;;;;14.15;3.83;;;;;;;19.62;34.24;100362.94;3165906;28;20058;-63
2023/10/17 07:52:15;;;;;;;8.50;4.03;;;;;;;19.75;34.00;100350.50;3168371;28;20054;-64
2023/10/17 07:53:49;;;;;;;10.57;4.05;;;;;;;19.84;33.82;100355.09;3156936;28;20496;-63
2023/10/17 07:55:35;;;;;;;12.95;4.45;;;;;;;19.95;33.79;100349.88;3159570;28;20086;-64
2023/10/17 07:57:07;;;;;;;12.93;4.22;;;;;;;20.07;33.37;100347.25;3157431;28;20071;-64
2023/10/17 07:58:41;;;;;;;12.73;3.70;;;;;;;20.14;33.07;100354.63;3162320;28;20083;-63
2023/10/17 08:00:26;;;;;;;10.57;4.45;;;;;;;20.02;33.06;100344.94;3170233;28;20122;-64
2023/10/17 08:01:59;;;;;;;7.60;4.40;;;;;;;19.72;33.64;100343.66;3153683;28;20040;-64
2023/10/17 08:03:30;;;;;;;9.73;4.38;;;;;;;19.50;33.54;100343.56;3158275;28;20048;-64
2023/10/17 08:05:16;;;;;;;12.90;4.07;;;;;;;19.14;33.84;100340.00;3157105;28;20068;-64
2023/10/17 08:06:50;;;;;;;14.85;4.82;;;;;;;18.82;34.40;100348.41;3162177;28;20059;-63
2023/10/17 08:08:30;;;;;;;12.70;4.30;;;;;;;18.62;34.66;100346.31;3170127;28;20481;-63
2023/10/17 08:10:09;;;;;;;14.48;4.45;;;;;;;18.66;34.75;100342.50;3170104;28;20508;-63
2023/10/17 08:11:41;;;;;;;13.63;4.50;;;;;;;18.70;34.45;100348.41;3170063;28;20248;-62
2023/10/17 08:13:15;;;;;;;19.73;4.53;;;;;;;18.99;34.29;100338.44;3169897;28;20134;-65
2023/10/17 08:14:48;;;;;;;;;;;;;;;18.83;34.79;100333.44;3170713;28;20135;-63
2023/10/17 08:16:26;;;;;;;15.27;4.15;;;;;;;19.14;34.39;100329.44;3168175;28;19931;-63
2023/10/17 08:17:58;;;;;;;10.13;3.42;;;;;;;19.35;34.37;100332.31;3151071;28;20395;-64
2023/10/17 08:19:35;;;;;;;8.02;3.40;;;;;;;19.61;33.93;100330.41;3165417;28;20048;-63
2023/10/17 08:22:55;;;;;;;21.13;3.30;;;;;;;19.14;34.13;100328.56;3170110;28;20094;-63
2023/10/17 08:24:33;;;;;;;11.05;3.13;;;;;;;18.72;34.84;100325.38;3169672;28;20055;-64
2023/10/17 08:26:10;;;;;;;9.68;3.60;;;;;;;18.61;35.26;100320.88;3169905;28;20051;-63
2023/10/17 08:27:46;;;;;;;5.18;2.30;;;;;;;18.56;35.20;100323.84;3169317;28;20083;-64
2023/10/17 08:29:20;;;;;;;9.75;2.70;;;;;;;18.48;35.37;100320.03;3166414;28;20066;-62
2023/10/17 08:30:52;;;;;;;8.50;2.65;;;;;;;18.42;35.61;100323.94;3159694;28;20594;-62
2023/10/17 08:32:54;;;;;;;6.57;2.22;;;;;;;18.61;35.48;100310.34;3155825;28;20149;-63
2023/10/17 08:34:41;;;;;;;8.73;2.40;;;;;;;18.83;35.00;100307.03;3162036;28;20526;-63
2023/10/17 08:36:16;;;;;;;13.35;2.40;;;;;;;19.02;34.83;100310.06;3163736;28;20048;-62
2023/10/17 08:37:47;;;;;;;7.68;2.03;;;;;;;19.17;34.70;100305.47;3158966;28;20208;-63
2023/10/17 08:43:42;;;;;;;9.93;2.25;;;;;;;18.70;35.21;100309.69;3128268;28;19932;-64
2023/10/17 08:45:15;;;;;;;6.80;2.03;;;;;;;18.73;35.30;100301.59;3118351;28;20800;-63
2023/10/17 08:46:47;;;;;;;10.02;2.47;;;;;;;18.86;35.15;100309.47;3153695;28;20448;-64
2023/10/17 08:48:21;;;;;;;7.40;1.97;;;;;;;18.92;35.03;100300.25;3153038;28;20148;-62
2023/10/17 08:49:54;;;;;;;8.20;2.15;;;;;;;18.55;35.41;100308.97;3166722;28;20040;-63
2023/10/17 08:51:47;;;;;;;9.35;2.55;;;;;;;18.12;35.95;100305.81;3169608;28;20047;-63